Accueil
METAR-TAF:

METAR-TAF

Aéroports :

Aéroport de Dzaoudzi-Pamandzi

Dzaoudzi, Mayotte

latitude: 12-48S, longitude: 045-17E, altitude: 8 m

Observation

Le bulletin a été fait il y a 17 minutes, à 19:30 UTC
Vent 10 kt de sud
Température 26°C
Humidité 74%
Pression 1017 hPa
Visibilité 10 km ou plus
pas de nuages en-dessous de 1500 mètres et pas de cumulonimbus.

METAR: FMCZ 221930Z AUTO 18010KT CAVOK 26/21 Q1017 BECMG 18020KT

Heure: 22:47 (19:47 UTC)

Prévision

Le bulletin a été fait il y a 2 heures et 47 minutes, à 17:00 UTC
Prévision valable du 22 à 18 UTC au 23 à 18 UTC
Vent 10 kt de sud
Visibilité 10 km ou plus
Nuages fragmentés à une hauteur de 2700 ft
Evoluant progressivement
du 22 à 21 UTC au 22 à 23 UTC
Vent 20 kt de sud
Evoluant progressivement
du 23 à 14 UTC au 23 à 16 UTC
Vent 10 kt de sud/sud-est

TAF: FMCZ 221700Z 2218/2318 18010KT 9999 BKN027 BECMG 2221/2223 18020KT BECMG 2314/2316 16010KT

Observations et prévisions météorologiques de plus de 4000 aéroports (messages METAR et TAF).

Les stations disponibles sont représentées par des disques jaunes et rouges sur la carte.

Passer la souris dessus pour voir le nom de la station.

Cliquer dessus pour voir les observations et prévisions météorologiques.

Pour changer de carte: cliquez sur les boutons verts avec une croix noire pour zoomer, sur le bouton vert avec un tiret pour effectuer un zoom arrière, ou sur les flèches vertes pour les cartes adjacentes.


METAR-TAF: